sensor_id;sensor_type;location;lat;lon;timestamp;temperature;humidity
64032;DHT22;50278;47.796;11.968;2022-10-13T00:01:22;7.42;118.99
64032;DHT22;50278;47.796;11.968;2022-10-13T00:03:48;7.35;118.99
64032;DHT22;50278;47.796;11.968;2022-10-13T00:06:20;7.31;118.99
64032;DHT22;50278;47.796;11.968;2022-10-13T00:08:46;7.41;118.99
64032;DHT22;50278;47.796;11.968;2022-10-13T00:13:43;7.37;118.99
64032;DHT22;50278;47.796;11.968;2022-10-13T00:16:10;7.30;118.99
64032;DHT22;50278;47.796;11.968;2022-10-13T00:18:36;7.35;118.99
64032;DHT22;50278;47.796;11.968;2022-10-13T00:21:07;7.33;118.99
64032;DHT22;50278;47.796;11.968;2022-10-13T00:23:33;7.26;118.99
64032;DHT22;50278;47.796;11.968;2022-10-13T00:26:05;7.20;118.99
64032;DHT22;50278;47.796;11.968;2022-10-13T00:28:31;7.10;118.99
64032;DHT22;50278;47.796;11.968;2022-10-13T00:30:57;7.15;118.99
64032;DHT22;50278;47.796;11.968;2022-10-13T00:33:23;7.07;118.99
64032;DHT22;50278;47.796;11.968;2022-10-13T00:35:49;6.98;118.99
64032;DHT22;50278;47.796;11.968;2022-10-13T00:38:18;6.96;118.99
64032;DHT22;50278;47.796;11.968;2022-10-13T00:40:54;6.87;118.99
64032;DHT22;50278;47.796;11.968;2022-10-13T00:43:24;6.93;118.99
64032;DHT22;50278;47.796;11.968;2022-10-13T00:45:50;6.95;118.99
64032;DHT22;50278;47.796;11.968;2022-10-13T00:48:19;6.93;118.99
64032;DHT22;50278;47.796;11.968;2022-10-13T00:50:46;6.89;118.99
64032;DHT22;50278;47.796;11.968;2022-10-13T00:53:14;6.90;118.99
64032;DHT22;50278;47.796;11.968;2022-10-13T00:55:41;6.90;118.99
64032;DHT22;50278;47.796;11.968;2022-10-13T00:58:09;6.88;118.99
64032;DHT22;50278;47.796;11.968;2022-10-13T01:00:37;6.95;118.99
64032;DHT22;50278;47.796;11.968;2022-10-13T01:03:03;6.96;118.99
64032;DHT22;50278;47.796;11.968;2022-10-13T01:05:29;6.95;118.99
64032;DHT22;50278;47.796;11.968;2022-10-13T01:07:55;6.89;118.99
64032;DHT22;50278;47.796;11.968;2022-10-13T01:13:09;6.82;118.99
64032;DHT22;50278;47.796;11.968;2022-10-13T01:18:33;6.87;118.99
64032;DHT22;50278;47.796;11.968;2022-10-13T01:21:07;6.95;118.99
64032;DHT22;50278;47.796;11.968;2022-10-13T01:26:43;6.94;118.99
64032;DHT22;50278;47.796;11.968;2022-10-13T01:34:45;7.03;118.99
64032;DHT22;50278;47.796;11.968;2022-10-13T01:37:30;7.05;118.99
64032;DHT22;50278;47.796;11.968;2022-10-13T01:40:10;6.98;118.99
64032;DHT22;50278;47.796;11.968;2022-10-13T01:45:41;6.86;118.99
64032;DHT22;50278;47.796;11.968;2022-10-13T01:48:10;6.80;118.99
64032;DHT22;50278;47.796;11.968;2022-10-13T01:50:39;6.85;118.99
64032;DHT22;50278;47.796;11.968;2022-10-13T01:53:05;6.82;118.99
64032;DHT22;50278;47.796;11.968;2022-10-13T01:55:31;6.79;118.99
64032;DHT22;50278;47.796;11.968;2022-10-13T01:57:57;6.76;118.99
64032;DHT22;50278;47.796;11.968;2022-10-13T02:00:23;6.70;118.99
64032;DHT22;50278;47.796;11.968;2022-10-13T02:05:56;6.73;118.99
64032;DHT22;50278;47.796;11.968;2022-10-13T02:08:29;6.65;118.99
64032;DHT22;50278;47.796;11.968;2022-10-13T02:11:11;6.57;118.99
64032;DHT22;50278;47.796;11.968;2022-10-13T02:13:42;6.57;118.99
64032;DHT22;50278;47.796;11.968;2022-10-13T02:16:19;6.57;118.99
64032;DHT22;50278;47.796;11.968;2022-10-13T02:18:48;6.54;118.99
64032;DHT22;50278;47.796;11.968;2022-10-13T02:21:15;6.57;118.99
64032;DHT22;50278;47.796;11.968;2022-10-13T02:23:42;6.57;118.99
64032;DHT22;50278;47.796;11.968;2022-10-13T02:26:08;6.56;118.99
64032;DHT22;50278;47.796;11.968;2022-10-13T02:28:36;6.53;118.99
64032;DHT22;50278;47.796;11.968;2022-10-13T02:31:03;6.46;118.99
64032;DHT22;50278;47.796;11.968;2022-10-13T02:33:31;6.43;118.99
64032;DHT22;50278;47.796;11.968;2022-10-13T02:35:57;6.49;118.99
64032;DHT22;50278;47.796;11.968;2022-10-13T02:38:22;6.50;118.99
64032;DHT22;50278;47.796;11.968;2022-10-13T02:40:48;6.44;118.99
64032;DHT22;50278;47.796;11.968;2022-10-13T02:43:14;6.50;118.99
64032;DHT22;50278;47.796;11.968;2022-10-13T02:45:39;6.52;118.99
64032;DHT22;50278;47.796;11.968;2022-10-13T02:48:05;6.52;118.99
64032;DHT22;50278;47.796;11.968;2022-10-13T02:50:30;6.49;118.99
64032;DHT22;50278;47.796;11.968;2022-10-13T02:52:57;6.39;118.99
64032;DHT22;50278;47.796;11.968;2022-10-13T02:55:22;6.46;118.99
64032;DHT22;50278;47.796;11.968;2022-10-13T02:57:54;6.55;118.99
64032;DHT22;50278;47.796;11.968;2022-10-13T03:00:20;6.45;118.99
64032;DHT22;50278;47.796;11.968;2022-10-13T03:02:46;6.35;118.99
64032;DHT22;50278;47.796;11.968;2022-10-13T03:05:11;6.27;118.99
64032;DHT22;50278;47.796;11.968;2022-10-13T03:07:37;6.24;118.99
64032;DHT22;50278;47.796;11.968;2022-10-13T03:10:03;6.26;118.99
64032;DHT22;50278;47.796;11.968;2022-10-13T03:12:29;6.27;118.99
64032;DHT22;50278;47.796;11.968;2022-10-13T03:14:55;6.29;118.99
64032;DHT22;50278;47.796;11.968;2022-10-13T03:17:20;6.30;118.99
64032;DHT22;50278;47.796;11.968;2022-10-13T03:19:46;6.27;118.99
64032;DHT22;50278;47.796;11.968;2022-10-13T03:22:15;6.16;118.99
64032;DHT22;50278;47.796;11.968;2022-10-13T03:24:41;6.12;118.99
64032;DHT22;50278;47.796;11.968;2022-10-13T03:27:07;6.10;118.99
64032;DHT22;50278;47.796;11.968;2022-10-13T03:29:32;6.07;118.99
64032;DHT22;50278;47.796;11.968;2022-10-13T03:31:58;6.10;118.99
64032;DHT22;50278;47.796;11.968;2022-10-13T03:34:23;6.07;118.99
64032;DHT22;50278;47.796;11.968;2022-10-13T03:36:49;6.10;118.99
64032;DHT22;50278;47.796;11.968;2022-10-13T03:39:15;6.10;118.99
64032;DHT22;50278;47.796;11.968;2022-10-13T03:41:40;6.13;118.99
64032;DHT22;50278;47.796;11.968;2022-10-13T03:44:06;6.20;118.99
64032;DHT22;50278;47.796;11.968;2022-10-13T03:46:32;6.21;118.99
64032;DHT22;50278;47.796;11.968;2022-10-13T03:48:58;6.36;118.99
64032;DHT22;50278;47.796;11.968;2022-10-13T03:51:24;6.40;118.99
64032;DHT22;50278;47.796;11.968;2022-10-13T03:53:51;6.38;118.99
64032;DHT22;50278;47.796;11.968;2022-10-13T03:56:19;6.34;118.99
64032;DHT22;50278;47.796;11.968;2022-10-13T03:58:53;6.33;118.99
64032;DHT22;50278;47.796;11.968;2022-10-13T04:01:21;6.25;118.99
64032;DHT22;50278;47.796;11.968;2022-10-13T04:03:48;6.19;118.99
64032;DHT22;50278;47.796;11.968;2022-10-13T04:06:13;6.25;118.99
64032;DHT22;50278;47.796;11.968;2022-10-13T04:08:39;6.13;118.99
64032;DHT22;50278;47.796;11.968;2022-10-13T04:11:07;6.15;118.99
64032;DHT22;50278;47.796;11.968;2022-10-13T04:13:34;6.12;118.99
64032;DHT22;50278;47.796;11.968;2022-10-13T04:16:04;6.02;118.99
64032;DHT22;50278;47.796;11.968;2022-10-13T04:18:30;6.05;118.99
64032;DHT22;50278;47.796;11.968;2022-10-13T04:20:57;5.95;118.99
64032;DHT22;50278;47.796;11.968;2022-10-13T04:23:22;5.89;118.99
64032;DHT22;50278;47.796;11.968;2022-10-13T04:25:48;5.84;118.99
64032;DHT22;50278;47.796;11.968;2022-10-13T04:28:14;5.83;118.99
64032;DHT22;50278;47.796;11.968;2022-10-13T04:30:40;5.83;118.99
64032;DHT22;50278;47.796;11.968;2022-10-13T04:33:05;5.84;118.99
64032;DHT22;50278;47.796;11.968;2022-10-13T04:35:31;5.91;118.99
64032;DHT22;50278;47.796;11.968;2022-10-13T04:37:57;5.95;118.99
64032;DHT22;50278;47.796;11.968;2022-10-13T04:40:23;5.96;118.99
64032;DHT22;50278;47.796;11.968;2022-10-13T04:42:49;6.06;118.99
64032;DHT22;50278;47.796;11.968;2022-10-13T04:45:15;6.23;118.99
64032;DHT22;50278;47.796;11.968;2022-10-13T04:47:41;6.27;118.99
64032;DHT22;50278;47.796;11.968;2022-10-13T04:50:07;6.31;118.99
64032;DHT22;50278;47.796;11.968;2022-10-13T04:52:34;6.37;118.99
64032;DHT22;50278;47.796;11.968;2022-10-13T04:55:00;6.38;118.99
64032;DHT22;50278;47.796;11.968;2022-10-13T04:57:25;6.39;118.99
64032;DHT22;50278;47.796;11.968;2022-10-13T04:59:51;6.37;118.99
64032;DHT22;50278;47.796;11.968;2022-10-13T05:02:17;6.35;118.99
64032;DHT22;50278;47.796;11.968;2022-10-13T05:04:42;6.28;118.99
64032;DHT22;50278;47.796;11.968;2022-10-13T05:07:08;6.28;118.99
64032;DHT22;50278;47.796;11.968;2022-10-13T05:09:34;6.28;118.99
64032;DHT22;50278;47.796;11.968;2022-10-13T05:11:59;6.19;118.99
64032;DHT22;50278;47.796;11.968;2022-10-13T05:14:25;6.11;118.99
64032;DHT22;50278;47.796;11.968;2022-10-13T05:16:50;6.08;118.99
64032;DHT22;50278;47.796;11.968;2022-10-13T05:19:16;6.04;118.99
64032;DHT22;50278;47.796;11.968;2022-10-13T05:21:41;6.00;118.99
64032;DHT22;50278;47.796;11.968;2022-10-13T05:24:07;5.99;118.99
64032;DHT22;50278;47.796;11.968;2022-10-13T05:26:39;5.99;118.99
64032;DHT22;50278;47.796;11.968;2022-10-13T05:29:05;6.02;118.99
64032;DHT22;50278;47.796;11.968;2022-10-13T05:31:31;6.06;118.99
64032;DHT22;50278;47.796;11.968;2022-10-13T05:33:58;6.10;118.99
64032;DHT22;50278;47.796;11.968;2022-10-13T05:36:30;6.20;118.99
64032;DHT22;50278;47.796;11.968;2022-10-13T05:38:58;6.22;118.99
64032;DHT22;50278;47.796;11.968;2022-10-13T05:41:26;6.24;118.99
64032;DHT22;50278;47.796;11.968;2022-10-13T05:44:01;6.31;118.99
64032;DHT22;50278;47.796;11.968;2022-10-13T05:46:27;6.44;118.99
64032;DHT22;50278;47.796;11.968;2022-10-13T05:48:53;6.54;118.99
64032;DHT22;50278;47.796;11.968;2022-10-13T05:51:27;6.57;118.99
64032;DHT22;50278;47.796;11.968;2022-10-13T05:56:38;6.56;118.99
64032;DHT22;50278;47.796;11.968;2022-10-13T05:59:08;6.49;118.99
64032;DHT22;50278;47.796;11.968;2022-10-13T06:01:37;6.53;118.99
64032;DHT22;50278;47.796;11.968;2022-10-13T06:04:06;6.57;118.99
64032;DHT22;50278;47.796;11.968;2022-10-13T06:06:32;6.69;118.99
64032;DHT22;50278;47.796;11.968;2022-10-13T06:08:59;6.78;118.99
64032;DHT22;50278;47.796;11.968;2022-10-13T06:11:25;6.83;118.99
64032;DHT22;50278;47.796;11.968;2022-10-13T06:13:51;6.96;118.99
64032;DHT22;50278;47.796;11.968;2022-10-13T06:16:16;7.02;118.99
64032;DHT22;50278;47.796;11.968;2022-10-13T06:18:42;7.15;118.99
64032;DHT22;50278;47.796;11.968;2022-10-13T06:21:07;7.30;118.99
64032;DHT22;50278;47.796;11.968;2022-10-13T06:23:33;7.47;118.99
64032;DHT22;50278;47.796;11.968;2022-10-13T06:25:58;7.62;118.99
64032;DHT22;50278;47.796;11.968;2022-10-13T06:28:25;7.75;118.99
64032;DHT22;50278;47.796;11.968;2022-10-13T06:30:51;7.81;118.99
64032;DHT22;50278;47.796;11.968;2022-10-13T06:33:22;7.92;118.99
64032;DHT22;50278;47.796;11.968;2022-10-13T06:35:50;8.12;118.99
64032;DHT22;50278;47.796;11.968;2022-10-13T06:38:15;8.13;118.99
64032;DHT22;50278;47.796;11.968;2022-10-13T06:40:46;8.17;118.99
64032;DHT22;50278;47.796;11.968;2022-10-13T06:43:12;8.38;118.99
64032;DHT22;50278;47.796;11.968;2022-10-13T06:45:40;8.34;118.99
64032;DHT22;50278;47.796;11.968;2022-10-13T06:48:05;8.51;118.99
64032;DHT22;50278;47.796;11.968;2022-10-13T06:50:31;8.55;118.99
64032;DHT22;50278;47.796;11.968;2022-10-13T06:52:56;8.66;118.99
64032;DHT22;50278;47.796;11.968;2022-10-13T06:55:22;8.82;118.99
64032;DHT22;50278;47.796;11.968;2022-10-13T06:57:47;8.92;118.99
64032;DHT22;50278;47.796;11.968;2022-10-13T07:00:13;8.77;118.99
64032;DHT22;50278;47.796;11.968;2022-10-13T07:02:39;8.89;118.99
64032;DHT22;50278;47.796;11.968;2022-10-13T07:05:04;8.83;118.99
64032;DHT22;50278;47.796;11.968;2022-10-13T07:07:30;9.09;118.99
64032;DHT22;50278;47.796;11.968;2022-10-13T07:09:56;9.11;118.99
64032;DHT22;50278;47.796;11.968;2022-10-13T07:12:21;9.30;118.99
64032;DHT22;50278;47.796;11.968;2022-10-13T07:14:47;9.29;118.99
64032;DHT22;50278;47.796;11.968;2022-10-13T07:17:13;9.49;118.99
64032;DHT22;50278;47.796;11.968;2022-10-13T07:19:39;9.72;118.99
64032;DHT22;50278;47.796;11.968;2022-10-13T07:22:04;9.74;118.99
64032;DHT22;50278;47.796;11.968;2022-10-13T07:24:30;9.85;118.99
64032;DHT22;50278;47.796;11.968;2022-10-13T07:26:55;9.89;118.99
64032;DHT22;50278;47.796;11.968;2022-10-13T07:29:21;9.90;118.99
64032;DHT22;50278;47.796;11.968;2022-10-13T07:31:46;10.05;118.99
64032;DHT22;50278;47.796;11.968;2022-10-13T07:34:14;10.25;118.99
64032;DHT22;50278;47.796;11.968;2022-10-13T07:36:40;10.36;118.99
64032;DHT22;50278;47.796;11.968;2022-10-13T07:39:07;10.44;118.99
64032;DHT22;50278;47.796;11.968;2022-10-13T07:41:34;10.64;118.99
64032;DHT22;50278;47.796;11.968;2022-10-13T07:43:59;10.67;118.99
64032;DHT22;50278;47.796;11.968;2022-10-13T07:46:25;10.73;118.99
64032;DHT22;50278;47.796;11.968;2022-10-13T07:48:52;10.98;118.99
64032;DHT22;50278;47.796;11.968;2022-10-13T07:51:19;11.07;118.99
64032;DHT22;50278;47.796;11.968;2022-10-13T07:53:44;11.10;118.99
64032;DHT22;50278;47.796;11.968;2022-10-13T07:56:12;11.23;118.99
64032;DHT22;50278;47.796;11.968;2022-10-13T07:58:41;11.28;118.99
64032;DHT22;50278;47.796;11.968;2022-10-13T08:01:07;11.30;118.99
64032;DHT22;50278;47.796;11.968;2022-10-13T08:03:37;11.18;118.99
64032;DHT22;50278;47.796;11.968;2022-10-13T08:06:03;11.32;118.99
64032;DHT22;50278;47.796;11.968;2022-10-13T08:08:30;11.52;118.99
64032;DHT22;50278;47.796;11.968;2022-10-13T08:11:07;11.49;118.99
64032;DHT22;50278;47.796;11.968;2022-10-13T08:13:34;11.67;118.99
64032;DHT22;50278;47.796;11.968;2022-10-13T08:16:11;11.88;118.99
64032;DHT22;50278;47.796;11.968;2022-10-13T08:18:36;11.90;118.99
64032;DHT22;50278;47.796;11.968;2022-10-13T08:21:03;12.10;118.99
64032;DHT22;50278;47.796;11.968;2022-10-13T08:23:28;12.18;118.99
64032;DHT22;50278;47.796;11.968;2022-10-13T08:25:54;12.46;118.99
64032;DHT22;50278;47.796;11.968;2022-10-13T08:28:23;12.50;118.99
64032;DHT22;50278;47.796;11.968;2022-10-13T08:30:50;12.57;118.99
64032;DHT22;50278;47.796;11.968;2022-10-13T08:33:18;12.72;118.99
64032;DHT22;50278;47.796;11.968;2022-10-13T08:35:43;12.78;118.99
64032;DHT22;50278;47.796;11.968;2022-10-13T08:38:09;12.88;118.99
64032;DHT22;50278;47.796;11.968;2022-10-13T08:40:37;12.97;118.99
64032;DHT22;50278;47.796;11.968;2022-10-13T08:43:06;13.32;118.99
64032;DHT22;50278;47.796;11.968;2022-10-13T08:45:34;13.21;118.99
64032;DHT22;50278;47.796;11.968;2022-10-13T08:48:08;13.36;118.99
64032;DHT22;50278;47.796;11.968;2022-10-13T08:50:40;13.32;118.99
64032;DHT22;50278;47.796;11.968;2022-10-13T08:53:38;13.41;118.99
64032;DHT22;50278;47.796;11.968;2022-10-13T08:56:29;13.38;118.99
64032;DHT22;50278;47.796;11.968;2022-10-13T08:58:56;13.47;118.99
64032;DHT22;50278;47.796;11.968;2022-10-13T09:01:23;13.69;118.99
64032;DHT22;50278;47.796;11.968;2022-10-13T09:06:43;13.88;118.99
64032;DHT22;50278;47.796;11.968;2022-10-13T09:09:13;14.07;118.99
64032;DHT22;50278;47.796;11.968;2022-10-13T09:11:42;14.36;118.99
64032;DHT22;50278;47.796;11.968;2022-10-13T09:16:44;14.50;118.99
64032;DHT22;50278;47.796;11.968;2022-10-13T09:21:38;14.49;118.99
64032;DHT22;50278;47.796;11.968;2022-10-13T09:24:06;14.68;118.99
64032;DHT22;50278;47.796;11.968;2022-10-13T09:26:36;14.85;118.99
64032;DHT22;50278;47.796;11.968;2022-10-13T09:29:34;14.60;118.99
64032;DHT22;50278;47.796;11.968;2022-10-13T09:32:15;14.86;118.99
64032;DHT22;50278;47.796;11.968;2022-10-13T09:34:41;14.99;118.99
64032;DHT22;50278;47.796;11.968;2022-10-13T09:37:17;15.03;118.99
64032;DHT22;50278;47.796;11.968;2022-10-13T09:39:43;14.84;118.99
64032;DHT22;50278;47.796;11.968;2022-10-13T09:44:45;14.87;118.99
64032;DHT22;50278;47.796;11.968;2022-10-13T09:47:19;14.87;118.99
64032;DHT22;50278;47.796;11.968;2022-10-13T09:50:22;14.79;118.99
64032;DHT22;50278;47.796;11.968;2022-10-13T09:52:49;15.10;118.99
64032;DHT22;50278;47.796;11.968;2022-10-13T09:55:44;15.09;118.99
64032;DHT22;50278;47.796;11.968;2022-10-13T09:58:25;15.17;118.99
64032;DHT22;50278;47.796;11.968;2022-10-13T10:00:53;15.39;118.99
64032;DHT22;50278;47.796;11.968;2022-10-13T10:03:29;15.45;118.99
64032;DHT22;50278;47.796;11.968;2022-10-13T10:05:59;15.74;118.99
64032;DHT22;50278;47.796;11.968;2022-10-13T10:08:52;15.62;118.99
64032;DHT22;50278;47.796;11.968;2022-10-13T10:11:28;16.04;118.99
64032;DHT22;50278;47.796;11.968;2022-10-13T10:13:59;16.46;118.99
64032;DHT22;50278;47.796;11.968;2022-10-13T10:16:36;16.39;118.99
64032;DHT22;50278;47.796;11.968;2022-10-13T10:19:19;15.87;118.99
64032;DHT22;50278;47.796;11.968;2022-10-13T10:22:00;16.16;118.99
64032;DHT22;50278;47.796;11.968;2022-10-13T10:27:43;16.48;118.99
64032;DHT22;50278;47.796;11.968;2022-10-13T10:30:19;16.19;118.99
64032;DHT22;50278;47.796;11.968;2022-10-13T10:32:56;16.50;118.99
64032;DHT22;50278;47.796;11.968;2022-10-13T10:35:54;16.33;118.99
64032;DHT22;50278;47.796;11.968;2022-10-13T10:43:28;16.35;118.99
64032;DHT22;50278;47.796;11.968;2022-10-13T10:45:58;16.14;118.99
64032;DHT22;50278;47.796;11.968;2022-10-13T10:48:37;16.51;118.99
64032;DHT22;50278;47.796;11.968;2022-10-13T10:51:05;16.74;118.99
64032;DHT22;50278;47.796;11.968;2022-10-13T10:59:03;16.59;118.99
64032;DHT22;50278;47.796;11.968;2022-10-13T11:04:38;16.91;118.99
64032;DHT22;50278;47.796;11.968;2022-10-13T11:07:13;16.74;118.99
64032;DHT22;50278;47.796;11.968;2022-10-13T11:17:28;17.17;118.99
64032;DHT22;50278;47.796;11.968;2022-10-13T11:19:55;17.33;118.99
64032;DHT22;50278;47.796;11.968;2022-10-13T11:22:28;17.77;118.99
64032;DHT22;50278;47.796;11.968;2022-10-13T11:24:57;17.50;118.99
64032;DHT22;50278;47.796;11.968;2022-10-13T11:27:39;17.19;118.99
64032;DHT22;50278;47.796;11.968;2022-10-13T11:30:38;18.04;118.99
64032;DHT22;50278;47.796;11.968;2022-10-13T11:44:58;18.40;118.99
64032;DHT22;50278;47.796;11.968;2022-10-13T11:47:48;19.13;118.99
64032;DHT22;50278;47.796;11.968;2022-10-13T11:55:51;20.02;118.99
64032;DHT22;50278;47.796;11.968;2022-10-13T12:00:54;19.15;118.99
64032;DHT22;50278;47.796;11.968;2022-10-13T12:03:25;19.67;118.99
64032;DHT22;50278;47.796;11.968;2022-10-13T12:05:51;19.68;118.99
64032;DHT22;50278;47.796;11.968;2022-10-13T12:08:18;19.29;118.99
64032;DHT22;50278;47.796;11.968;2022-10-13T12:10:45;19.16;118.99
64032;DHT22;50278;47.796;11.968;2022-10-13T12:13:22;18.82;118.99
64032;DHT22;50278;47.796;11.968;2022-10-13T12:15:56;18.51;118.99
64032;DHT22;50278;47.796;11.968;2022-10-13T12:18:27;18.27;118.99
64032;DHT22;50278;47.796;11.968;2022-10-13T12:20:56;18.08;118.99
64032;DHT22;50278;47.796;11.968;2022-10-13T12:23:23;18.48;118.99
64032;DHT22;50278;47.796;11.968;2022-10-13T12:25:50;18.62;118.99
64032;DHT22;50278;47.796;11.968;2022-10-13T12:28:21;18.46;118.99
64032;DHT22;50278;47.796;11.968;2022-10-13T12:30:58;19.29;118.99
64032;DHT22;50278;47.796;11.968;2022-10-13T12:33:34;19.82;118.99
64032;DHT22;50278;47.796;11.968;2022-10-13T12:36:20;19.36;118.99
64032;DHT22;50278;47.796;11.968;2022-10-13T12:38:49;18.98;118.99
64032;DHT22;50278;47.796;11.968;2022-10-13T12:41:18;18.74;118.99
64032;DHT22;50278;47.796;11.968;2022-10-13T12:43:45;18.84;118.99
64032;DHT22;50278;47.796;11.968;2022-10-13T12:46:11;18.63;118.99
64032;DHT22;50278;47.796;11.968;2022-10-13T12:48:36;18.73;118.99
64032;DHT22;50278;47.796;11.968;2022-10-13T12:53:42;19.45;118.99
64032;DHT22;50278;47.796;11.968;2022-10-13T12:56:31;19.65;118.99
64032;DHT22;50278;47.796;11.968;2022-10-13T12:58:57;20.01;118.99
64032;DHT22;50278;47.796;11.968;2022-10-13T13:01:27;19.81;118.99
64032;DHT22;50278;47.796;11.968;2022-10-13T13:04:01;19.63;118.99
64032;DHT22;50278;47.796;11.968;2022-10-13T13:06:54;19.14;118.99
64032;DHT22;50278;47.796;11.968;2022-10-13T13:09:32;19.65;118.99
64032;DHT22;50278;47.796;11.968;2022-10-13T13:14:34;19.09;118.99
64032;DHT22;50278;47.796;11.968;2022-10-13T13:19:31;18.64;118.99
64032;DHT22;50278;47.796;11.968;2022-10-13T13:21:57;18.93;118.99
64032;DHT22;50278;47.796;11.968;2022-10-13T13:24:23;18.83;118.99
64032;DHT22;50278;47.796;11.968;2022-10-13T13:26:48;18.46;118.99
64032;DHT22;50278;47.796;11.968;2022-10-13T13:29:15;18.70;118.99
64032;DHT22;50278;47.796;11.968;2022-10-13T13:31:40;18.48;118.99
64032;DHT22;50278;47.796;11.968;2022-10-13T13:34:06;18.20;118.99
64032;DHT22;50278;47.796;11.968;2022-10-13T13:36:32;18.48;118.99
64032;DHT22;50278;47.796;11.968;2022-10-13T13:38:57;18.24;118.99
64032;DHT22;50278;47.796;11.968;2022-10-13T13:41:22;18.62;118.99
64032;DHT22;50278;47.796;11.968;2022-10-13T13:43:52;18.27;118.99
64032;DHT22;50278;47.796;11.968;2022-10-13T13:46:22;18.39;118.99
64032;DHT22;50278;47.796;11.968;2022-10-13T13:48:49;18.28;118.99
64032;DHT22;50278;47.796;11.968;2022-10-13T13:51:15;18.06;118.99
64032;DHT22;50278;47.796;11.968;2022-10-13T13:53:43;17.85;118.99
64032;DHT22;50278;47.796;11.968;2022-10-13T13:56:13;17.79;118.99
64032;DHT22;50278;47.796;11.968;2022-10-13T13:58:38;17.92;118.99
64032;DHT22;50278;47.796;11.968;2022-10-13T14:01:04;17.81;118.99
64032;DHT22;50278;47.796;11.968;2022-10-13T14:03:29;17.96;118.99
64032;DHT22;50278;47.796;11.968;2022-10-13T14:05:55;17.99;118.99
64032;DHT22;50278;47.796;11.968;2022-10-13T14:08:21;18.10;118.99
64032;DHT22;50278;47.796;11.968;2022-10-13T14:10:46;17.47;118.99
64032;DHT22;50278;47.796;11.968;2022-10-13T14:13:16;17.34;118.99
64032;DHT22;50278;47.796;11.968;2022-10-13T14:15:42;17.35;118.99
64032;DHT22;50278;47.796;11.968;2022-10-13T14:18:07;17.10;118.99
64032;DHT22;50278;47.796;11.968;2022-10-13T14:20:33;17.19;118.99
64032;DHT22;50278;47.796;11.968;2022-10-13T14:22:58;17.14;118.99
64032;DHT22;50278;47.796;11.968;2022-10-13T14:25:24;17.26;118.99
64032;DHT22;50278;47.796;11.968;2022-10-13T14:27:49;17.41;118.99
64032;DHT22;50278;47.796;11.968;2022-10-13T14:30:15;17.24;118.99
64032;DHT22;50278;47.796;11.968;2022-10-13T14:32:41;17.31;118.99
64032;DHT22;50278;47.796;11.968;2022-10-13T14:35:07;17.00;118.99
64032;DHT22;50278;47.796;11.968;2022-10-13T14:37:33;16.99;118.99
64032;DHT22;50278;47.796;11.968;2022-10-13T14:39:58;17.14;118.99
64032;DHT22;50278;47.796;11.968;2022-10-13T14:42:24;17.03;118.99
64032;DHT22;50278;47.796;11.968;2022-10-13T14:44:49;16.94;118.99
64032;DHT22;50278;47.796;11.968;2022-10-13T14:47:15;16.65;118.99
64032;DHT22;50278;47.796;11.968;2022-10-13T14:49:40;16.41;118.99
64032;DHT22;50278;47.796;11.968;2022-10-13T14:52:06;16.43;118.99
64032;DHT22;50278;47.796;11.968;2022-10-13T14:54:32;16.34;118.99
64032;DHT22;50278;47.796;11.968;2022-10-13T14:56:58;16.31;118.99
64032;DHT22;50278;47.796;11.968;2022-10-13T14:59:25;16.22;118.99
64032;DHT22;50278;47.796;11.968;2022-10-13T15:01:51;16.17;118.99
64032;DHT22;50278;47.796;11.968;2022-10-13T15:04:16;16.10;118.99
64032;DHT22;50278;47.796;11.968;2022-10-13T15:06:42;15.92;118.99
64032;DHT22;50278;47.796;11.968;2022-10-13T15:09:08;15.87;118.99
64032;DHT22;50278;47.796;11.968;2022-10-13T15:11:34;15.80;118.99
64032;DHT22;50278;47.796;11.968;2022-10-13T15:13:59;15.84;118.99
64032;DHT22;50278;47.796;11.968;2022-10-13T15:16:27;15.80;118.99
64032;DHT22;50278;47.796;11.968;2022-10-13T15:18:54;15.88;118.99
64032;DHT22;50278;47.796;11.968;2022-10-13T15:21:20;15.87;118.99
64032;DHT22;50278;47.796;11.968;2022-10-13T15:23:45;15.80;118.99
64032;DHT22;50278;47.796;11.968;2022-10-13T15:26:12;15.69;118.99
64032;DHT22;50278;47.796;11.968;2022-10-13T15:28:41;15.76;118.99
64032;DHT22;50278;47.796;11.968;2022-10-13T15:31:09;15.63;118.99
64032;DHT22;50278;47.796;11.968;2022-10-13T15:33:35;15.54;118.99
64032;DHT22;50278;47.796;11.968;2022-10-13T15:36:01;15.44;118.99
64032;DHT22;50278;47.796;11.968;2022-10-13T15:38:26;15.27;118.99
64032;DHT22;50278;47.796;11.968;2022-10-13T15:40:52;15.41;118.99
64032;DHT22;50278;47.796;11.968;2022-10-13T15:43:22;15.26;118.99
64032;DHT22;50278;47.796;11.968;2022-10-13T15:46:15;15.27;118.99
64032;DHT22;50278;47.796;11.968;2022-10-13T15:48:51;15.24;118.99
64032;DHT22;50278;47.796;11.968;2022-10-13T15:51:19;15.14;118.99
64032;DHT22;50278;47.796;11.968;2022-10-13T15:53:46;14.74;118.99
64032;DHT22;50278;47.796;11.968;2022-10-13T15:56:12;14.49;118.99
64032;DHT22;50278;47.796;11.968;2022-10-13T15:58:38;14.35;118.99
64032;DHT22;50278;47.796;11.968;2022-10-13T16:01:11;14.19;118.99
64032;DHT22;50278;47.796;11.968;2022-10-13T16:03:37;14.00;118.99
64032;DHT22;50278;47.796;11.968;2022-10-13T16:06:04;13.95;118.99
64032;DHT22;50278;47.796;11.968;2022-10-13T16:08:30;13.69;118.99
64032;DHT22;50278;47.796;11.968;2022-10-13T16:10:56;13.37;118.99
64032;DHT22;50278;47.796;11.968;2022-10-13T16:13:22;13.02;118.99
64032;DHT22;50278;47.796;11.968;2022-10-13T16:15:58;12.96;118.99
64032;DHT22;50278;47.796;11.968;2022-10-13T16:18:28;12.90;118.99
64032;DHT22;50278;47.796;11.968;2022-10-13T16:20:53;12.82;118.99
64032;DHT22;50278;47.796;11.968;2022-10-13T16:23:19;12.63;118.99
64032;DHT22;50278;47.796;11.968;2022-10-13T16:25:44;12.46;118.99
64032;DHT22;50278;47.796;11.968;2022-10-13T16:28:12;12.34;118.99
64032;DHT22;50278;47.796;11.968;2022-10-13T16:30:39;12.19;118.99
64032;DHT22;50278;47.796;11.968;2022-10-13T16:33:04;12.13;118.99
64032;DHT22;50278;47.796;11.968;2022-10-13T16:35:30;11.99;118.99
64032;DHT22;50278;47.796;11.968;2022-10-13T16:37:55;11.92;118.99
64032;DHT22;50278;47.796;11.968;2022-10-13T16:40:21;11.86;118.99
64032;DHT22;50278;47.796;11.968;2022-10-13T16:42:46;11.78;118.99
64032;DHT22;50278;47.796;11.968;2022-10-13T16:45:12;11.74;118.99